createdAt,value
2023-04-23T00:00:58.070Z,95.45
2023-04-23T00:01:58.055Z,95.54
2023-04-23T00:02:58.276Z,95.14
2023-04-23T00:03:58.405Z,95.45
2023-04-23T00:04:58.249Z,95.24
2023-04-23T00:05:58.336Z,95.24
2023-04-23T00:06:58.111Z,95.65
2023-04-23T00:07:58.015Z,95.24
2023-04-23T00:08:58.061Z,95.54
2023-04-23T00:09:58.104Z,95.75
2023-04-23T00:10:57.992Z,95.75
2023-04-23T00:11:57.964Z,95.14
2023-04-23T00:12:59.241Z,95.34
2023-04-23T00:13:57.952Z,95.54
2023-04-23T00:14:57.951Z,95.29
2023-04-23T00:15:57.924Z,95.65
2023-04-23T00:16:58.087Z,96.41
2023-04-23T00:17:57.919Z,95.85
2023-04-23T00:18:57.899Z,95.79
2023-04-23T00:19:57.921Z,95.59
2023-04-23T00:20:57.842Z,95.53
2023-04-23T00:21:57.877Z,95.74
2023-04-23T00:22:57.896Z,96.41
2023-04-23T00:23:57.840Z,95.94
2023-04-23T00:24:57.808Z,95.59
2023-04-23T00:25:57.838Z,95.29
2023-04-23T00:26:57.789Z,95.29
2023-04-23T00:27:57.817Z,95.49
2023-04-23T00:28:57.883Z,95.79
2023-04-23T00:29:57.743Z,95.90
2023-04-23T00:30:57.740Z,95.39
2023-04-23T00:31:57.759Z,94.88
2023-04-23T00:32:57.773Z,94.98
2023-04-23T00:33:57.696Z,95.39
2023-04-23T00:34:57.746Z,95.43
2023-04-23T00:35:57.691Z,95.39
2023-04-23T00:36:57.674Z,94.98
2023-04-23T00:37:57.692Z,94.98
2023-04-23T00:38:57.682Z,94.98
2023-04-23T00:39:57.690Z,95.39
2023-04-23T00:40:57.646Z,95.39
2023-04-23T00:41:57.789Z,95.39
2023-04-23T00:42:57.628Z,95.39
2023-04-23T00:43:57.600Z,95.29
2023-04-23T00:44:57.634Z,95.74
2023-04-23T00:45:57.736Z,95.74
2023-04-23T00:46:57.587Z,95.53
2023-04-23T00:47:57.714Z,95.23
2023-04-23T00:48:57.550Z,95.53
2023-04-23T00:49:57.563Z,95.84
2023-04-23T00:50:57.551Z,95.74
2023-04-23T00:51:57.547Z,96.35
2023-04-23T00:52:57.539Z,96.15
2023-04-23T00:53:57.482Z,96.04
2023-04-23T00:54:57.476Z,95.84
2023-04-23T00:55:57.493Z,96.15
2023-04-23T00:56:57.448Z,95.89
2023-04-23T00:57:57.435Z,95.78
2023-04-23T00:58:57.430Z,95.98
2023-04-23T00:59:57.497Z,96.15
2023-04-23T01:00:57.530Z,96.15
2023-04-23T01:01:57.444Z,95.98
2023-04-23T01:02:57.501Z,95.78
2023-04-23T01:03:57.561Z,96.09
2023-04-23T01:04:57.368Z,96.35
2023-04-23T01:05:57.399Z,96.76
2023-04-23T01:06:57.421Z,96.50
2023-04-23T01:07:57.361Z,96.39
2023-04-23T01:08:57.323Z,96.55
2023-04-23T01:09:57.339Z,96.80
2023-04-23T01:10:57.307Z,95.68
2023-04-23T01:11:57.295Z,95.98
2023-04-23T01:12:57.335Z,96.30
2023-04-23T01:13:57.269Z,95.98
2023-04-23T01:14:57.250Z,95.93
2023-04-23T01:15:57.317Z,96.80
2023-04-23T01:16:57.294Z,96.70
2023-04-23T01:17:57.292Z,96.91
2023-04-23T01:18:57.260Z,96.50
2023-04-23T01:19:57.252Z,96.70
2023-04-23T01:20:57.188Z,96.64
2023-04-23T01:21:57.173Z,96.50
2023-04-23T01:22:57.182Z,96.95
2023-04-23T01:23:57.192Z,97.05
2023-04-23T01:24:57.179Z,96.44
2023-04-23T01:25:57.166Z,96.95
2023-04-23T01:26:57.162Z,96.95
2023-04-23T01:27:57.135Z,96.95
2023-04-23T01:28:57.107Z,96.95
2023-04-23T01:29:57.087Z,96.84
2023-04-23T01:30:57.135Z,96.75
2023-04-23T01:31:57.098Z,96.75
2023-04-23T01:32:57.124Z,96.95
2023-04-23T01:33:57.054Z,96.75
2023-04-23T01:34:57.057Z,96.84
2023-04-23T01:35:57.018Z,96.95
2023-04-23T01:36:57.119Z,96.84
2023-04-23T01:37:57.076Z,97.16
2023-04-23T01:38:56.980Z,96.75
2023-04-23T01:39:56.993Z,97.16
2023-04-23T01:40:56.998Z,96.64
2023-04-23T01:41:56.955Z,96.64
2023-04-23T01:42:56.999Z,96.84
2023-04-23T01:43:56.955Z,96.75
2023-04-23T01:44:56.942Z,96.54
2023-04-23T01:45:56.964Z,96.54
2023-04-23T01:46:56.934Z,96.79
2023-04-23T01:47:57.024Z,96.84
2023-04-23T01:48:56.961Z,97.05
2023-04-23T01:49:56.860Z,96.79
2023-04-23T01:50:56.846Z,96.64
2023-04-23T01:51:56.841Z,96.64
2023-04-23T01:52:56.867Z,96.44
2023-04-23T01:53:56.814Z,96.69
2023-04-23T01:54:56.888Z,96.59
2023-04-23T01:55:56.853Z,96.69
2023-04-23T01:56:56.831Z,96.69
2023-04-23T01:57:56.787Z,97.09
2023-04-23T01:58:56.768Z,96.89
2023-04-23T01:59:56.751Z,97.09
2023-04-23T02:00:56.826Z,96.69
2023-04-23T02:01:56.750Z,96.48
2023-04-23T02:02:56.888Z,96.64
2023-04-23T02:03:56.777Z,96.59
2023-04-23T02:04:56.690Z,96.79
2023-04-23T02:05:56.706Z,96.69
2023-04-23T02:06:56.830Z,96.59
2023-04-23T02:07:56.701Z,96.69
2023-04-23T02:08:56.677Z,96.89
2023-04-23T02:09:56.645Z,96.18
2023-04-23T02:10:56.630Z,96.89
2023-04-23T02:11:56.658Z,96.89
2023-04-23T02:12:56.658Z,96.69
2023-04-23T02:13:56.628Z,96.59
2023-04-23T02:14:56.590Z,96.73
2023-04-23T02:15:56.648Z,96.59
2023-04-23T02:16:56.582Z,96.28
2023-04-23T02:17:56.651Z,96.84
2023-04-23T02:18:56.609Z,96.73
2023-04-23T02:19:56.551Z,96.73
2023-04-23T02:20:56.540Z,96.53
2023-04-23T02:21:56.546Z,96.73
2023-04-23T02:22:56.511Z,96.22
2023-04-23T02:23:56.646Z,96.94
2023-04-23T02:24:56.491Z,96.73
2023-04-23T02:25:56.488Z,96.63
2023-04-23T02:26:56.474Z,96.84
2023-04-23T02:27:56.485Z,96.84
2023-04-23T02:28:56.491Z,97.04
2023-04-23T02:29:56.424Z,97.14
2023-04-23T02:30:56.447Z,96.94
2023-04-23T02:31:56.531Z,96.73
2023-04-23T02:32:56.425Z,96.94
2023-04-23T02:33:56.485Z,96.84
2023-04-23T02:34:56.384Z,96.73
2023-04-23T02:35:56.376Z,96.63
2023-04-23T02:36:56.355Z,96.84
2023-04-23T02:37:56.379Z,96.78
2023-04-23T02:38:56.346Z,96.94
2023-04-23T02:39:56.432Z,96.73
2023-04-23T02:40:56.318Z,96.84
2023-04-23T02:41:56.314Z,97.14
2023-04-23T02:42:56.279Z,96.98
2023-04-23T02:43:56.309Z,96.84
2023-04-23T02:44:56.290Z,96.84
2023-04-23T02:45:56.341Z,96.78
2023-04-23T02:46:56.443Z,96.88
2023-04-23T02:47:56.295Z,96.78
2023-04-23T02:48:56.254Z,97.08
2023-04-23T02:49:56.271Z,96.98
2023-04-23T02:50:56.242Z,96.68
2023-04-23T02:51:56.272Z,96.98
2023-04-23T02:52:56.176Z,97.08
2023-04-23T02:53:56.159Z,97.08
2023-04-23T02:54:56.196Z,97.08
2023-04-23T02:55:56.163Z,96.88
2023-04-23T02:56:56.165Z,97.19
2023-04-23T02:57:56.179Z,96.98
2023-04-23T02:58:56.104Z,96.88
2023-04-23T02:59:56.133Z,96.88
2023-04-23T03:00:56.184Z,96.98
2023-04-23T03:01:56.131Z,96.98
2023-04-23T03:02:56.177Z,97.08
2023-04-23T03:03:56.220Z,96.88
2023-04-23T03:04:56.108Z,97.08
2023-04-23T03:05:56.044Z,97.70
2023-04-23T03:06:56.030Z,97.29
2023-04-23T03:07:56.011Z,97.19
2023-04-23T03:08:56.022Z,97.34
2023-04-23T03:09:56.011Z,97.70
2023-04-23T03:10:56.018Z,96.98
2023-04-23T03:11:56.057Z,97.45
2023-04-23T03:12:56.001Z,97.34
2023-04-23T03:13:55.945Z,97.86
2023-04-23T03:14:55.938Z,97.75
2023-04-23T03:15:55.936Z,97.45
2023-04-23T03:16:56.042Z,97.86
2023-04-23T03:17:55.933Z,97.34
2023-04-23T03:18:55.894Z,97.34
2023-04-23T03:19:55.882Z,97.34
2023-04-23T03:20:55.880Z,97.55
2023-04-23T03:21:55.873Z,96.98
2023-04-23T03:22:55.891Z,96.94
2023-04-23T03:23:55.830Z,96.68
2023-04-23T03:24:55.853Z,97.19
2023-04-23T03:25:55.842Z,97.19
2023-04-23T03:26:55.802Z,97.19
2023-04-23T03:27:55.809Z,96.98
2023-04-23T03:28:55.827Z,96.88
2023-04-23T03:29:55.794Z,97.13
2023-04-23T03:30:55.781Z,97.24
2023-04-23T03:31:55.767Z,97.13
2023-04-23T03:32:55.851Z,96.92
2023-04-23T03:33:55.749Z,97.54
2023-04-23T03:34:55.762Z,97.95
2023-04-23T03:35:55.719Z,97.64
2023-04-23T03:36:55.685Z,97.33
2023-04-23T03:37:55.722Z,97.33
2023-04-23T03:38:55.676Z,97.33
2023-04-23T03:39:55.663Z,97.54
2023-04-23T03:40:55.773Z,97.33
2023-04-23T03:41:55.711Z,97.13
2023-04-23T03:42:55.634Z,97.54
2023-04-23T03:43:55.621Z,97.33
2023-04-23T03:44:55.600Z,98.25
2023-04-23T03:45:55.607Z,97.54
2023-04-23T03:47:03.185Z,98.25
2023-04-23T03:47:55.580Z,97.85
2023-04-23T03:48:55.554Z,97.64
2023-04-23T03:49:55.562Z,98.15
2023-04-23T03:50:55.549Z,98.05
2023-04-23T03:51:55.550Z,98.56
2023-04-23T03:52:55.528Z,98.66
2023-04-23T03:53:55.508Z,98.77
2023-04-23T03:54:55.533Z,98.86
2023-04-23T03:55:55.500Z,98.46
2023-04-23T03:56:55.469Z,98.46
2023-04-23T03:57:55.465Z,98.56
2023-04-23T03:58:55.478Z,98.56
2023-04-23T03:59:55.442Z,98.46
2023-04-23T04:00:55.435Z,98.25
2023-04-23T04:01:55.443Z,98.46
2023-04-23T04:02:55.563Z,98.41
2023-04-23T04:03:55.567Z,98.52
2023-04-23T04:04:55.547Z,98.56
2023-04-23T04:05:55.414Z,98.31
2023-04-23T04:06:55.369Z,98.61
2023-04-23T04:07:55.366Z,98.41
2023-04-23T04:08:55.358Z,98.21
2023-04-23T04:09:55.335Z,98.57
2023-04-23T04:10:55.313Z,98.36
2023-04-23T04:11:55.305Z,97.90
2023-04-23T04:12:55.359Z,98.16
2023-04-23T04:13:55.285Z,97.90
2023-04-23T04:14:55.302Z,98.06
2023-04-23T04:15:55.300Z,98.06
2023-04-23T04:16:55.255Z,97.86
2023-04-23T04:17:55.279Z,97.34
2023-04-23T04:18:56.665Z,97.75
2023-04-23T04:19:55.223Z,98.06
2023-04-23T04:20:55.215Z,97.55
2023-04-23T04:21:55.200Z,97.45
2023-04-23T04:22:55.183Z,97.24
2023-04-23T04:23:55.189Z,97.65
2023-04-23T04:24:55.195Z,97.55
2023-04-23T04:25:55.183Z,97.04
2023-04-23T04:26:55.153Z,97.14
2023-04-23T04:27:55.132Z,97.24
2023-04-23T04:28:55.141Z,96.84
2023-04-23T04:29:55.125Z,96.94
2023-04-23T04:30:55.144Z,97.24
2023-04-23T04:31:55.139Z,97.04
2023-04-23T04:32:55.109Z,97.14
2023-04-23T04:33:55.078Z,96.73
2023-04-23T04:34:55.080Z,96.02
2023-04-23T04:35:55.065Z,96.22
2023-04-23T04:36:55.071Z,96.33
2023-04-23T04:37:55.027Z,96.33
2023-04-23T04:38:55.008Z,96.53
2023-04-23T04:39:55.000Z,95.72
2023-04-23T04:40:54.991Z,95.92
2023-04-23T04:41:54.988Z,96.02
2023-04-23T04:42:55.027Z,96.02
2023-04-23T04:43:54.987Z,96.02
2023-04-23T04:44:54.954Z,95.51
2023-04-23T04:45:54.932Z,95.51
2023-04-23T04:46:54.953Z,95.51
2023-04-23T04:47:54.986Z,96.02
2023-04-23T04:48:54.903Z,95.67
2023-04-23T04:49:54.907Z,95.31
2023-04-23T04:50:54.889Z,95.77
2023-04-23T04:51:54.866Z,95.20
2023-04-23T04:52:54.865Z,95.20
2023-04-23T04:53:54.856Z,95.31
2023-04-23T04:54:54.842Z,95.61
2023-04-23T04:55:54.867Z,95.31
2023-04-23T04:56:54.816Z,95.61
2023-04-23T04:57:54.805Z,95.41
2023-04-23T04:58:54.794Z,95.61
2023-04-23T04:59:54.795Z,95.81
2023-04-23T05:00:54.882Z,95.31
2023-04-23T05:01:54.858Z,95.61
2023-04-23T05:02:54.876Z,95.31
2023-04-23T05:03:54.891Z,95.51
2023-04-23T05:04:54.742Z,95.67
2023-04-23T05:05:54.733Z,95.67
2023-04-23T05:06:54.732Z,95.47
2023-04-23T05:07:54.708Z,95.57
2023-04-23T05:08:54.698Z,95.67
2023-04-23T05:09:54.700Z,95.57
2023-04-23T05:10:54.677Z,95.36
2023-04-23T05:11:54.658Z,95.57
2023-04-23T05:12:54.638Z,95.57
2023-04-23T05:13:54.620Z,94.75
2023-04-23T05:14:54.634Z,95.47
2023-04-23T05:15:54.640Z,95.26
2023-04-23T05:16:54.714Z,95.06
2023-04-23T05:17:54.612Z,94.71
2023-04-23T05:18:54.575Z,94.91
2023-04-23T05:19:54.587Z,95.12
2023-04-23T05:20:54.553Z,95.12
2023-04-23T05:21:54.563Z,94.30
2023-04-23T05:22:54.542Z,94.20
2023-04-23T05:23:54.535Z,94.30
2023-04-23T05:24:54.515Z,94.50
2023-04-23T05:25:54.549Z,93.89
2023-04-23T05:26:54.489Z,93.85
2023-04-23T05:27:54.503Z,94.05
2023-04-23T05:28:54.463Z,94.05
2023-04-23T05:29:54.450Z,94.05
2023-04-23T05:30:54.444Z,93.54
2023-04-23T05:31:54.442Z,93.54
2023-04-23T05:32:54.471Z,93.74
2023-04-23T05:33:54.430Z,93.64
2023-04-23T05:34:54.420Z,93.54
2023-04-23T05:35:54.385Z,93.54
2023-04-23T05:36:54.404Z,93.44
2023-04-23T05:37:54.361Z,93.33
2023-04-23T05:38:54.370Z,93.64
2023-04-23T05:39:54.361Z,94.15
2023-04-23T05:40:54.376Z,93.85
2023-04-23T05:41:54.328Z,94.15
2023-04-23T05:42:54.324Z,93.54
2023-04-23T05:43:54.299Z,93.64
2023-04-23T05:44:54.282Z,93.50
2023-04-23T05:45:54.282Z,93.33
2023-04-23T05:46:54.312Z,93.80
2023-04-23T05:47:54.294Z,93.85
2023-04-23T05:48:54.235Z,93.60
2023-04-23T05:49:54.236Z,92.72
2023-04-23T05:50:54.251Z,92.89
2023-04-23T05:51:54.207Z,92.99
2023-04-23T05:52:54.211Z,93.50
2023-04-23T05:53:54.183Z,93.70
2023-04-23T05:54:54.188Z,94.01
2023-04-23T05:55:54.151Z,93.50
2023-04-23T05:56:54.778Z,93.60
2023-04-23T05:57:54.148Z,93.40
2023-04-23T05:58:54.144Z,93.40
2023-04-23T05:59:54.109Z,93.60
2023-04-23T06:00:54.108Z,93.40
2023-04-23T06:01:54.086Z,93.40
2023-04-23T06:02:54.171Z,93.29
2023-04-23T06:03:54.419Z,93.50
2023-04-23T06:04:54.343Z,93.76
2023-04-23T06:05:54.159Z,93.15
2023-04-23T06:06:54.031Z,92.89
2023-04-23T06:07:54.027Z,93.55
2023-04-23T06:08:54.008Z,93.35
2023-04-23T06:09:54.016Z,93.05
2023-04-23T06:10:54.126Z,92.99
2023-04-23T06:11:53.978Z,93.15
2023-04-23T06:12:53.964Z,93.25
2023-04-23T06:13:53.959Z,93.15
2023-04-23T06:14:53.971Z,92.74
2023-04-23T06:15:53.965Z,93.25
2023-04-23T06:16:53.979Z,92.94
2023-04-23T06:17:53.939Z,93.05
2023-04-23T06:18:53.898Z,92.74
2023-04-23T06:19:53.908Z,92.44
2023-04-23T06:20:53.911Z,93.45
2023-04-23T06:21:53.866Z,92.40
2023-04-23T06:22:53.883Z,92.40
2023-04-23T06:23:53.838Z,92.84
2023-04-23T06:24:53.848Z,92.23
2023-04-23T06:25:53.818Z,92.23
2023-04-23T06:26:53.838Z,92.90
2023-04-23T06:27:53.799Z,92.84
2023-04-23T06:28:53.820Z,93.21
2023-04-23T06:29:53.780Z,92.90
2023-04-23T06:30:53.766Z,93.10
2023-04-23T06:31:53.848Z,92.49
2023-04-23T06:32:53.805Z,92.49
2023-04-23T06:33:53.728Z,92.60
2023-04-23T06:35:01.039Z,92.23
2023-04-23T06:35:53.713Z,92.74
2023-04-23T06:36:53.723Z,91.78
2023-04-23T06:37:53.683Z,92.29
2023-04-23T06:38:53.692Z,92.29
2023-04-23T06:39:53.665Z,92.09
2023-04-23T06:40:53.691Z,92.23
2023-04-23T06:41:53.653Z,91.88
2023-04-23T06:42:53.650Z,92.19
2023-04-23T06:43:53.635Z,92.03
2023-04-23T06:44:53.604Z,92.03
2023-04-23T06:45:53.591Z,92.03
2023-04-23T06:46:53.684Z,91.68
2023-04-23T06:47:53.609Z,91.83
2023-04-23T06:48:53.564Z,91.58
2023-04-23T06:49:53.636Z,91.99
2023-04-23T06:50:53.541Z,91.72
2023-04-23T06:51:54.254Z,91.58
2023-04-23T06:52:53.572Z,91.83
2023-04-23T06:53:53.505Z,91.83
2023-04-23T06:54:53.572Z,91.78
2023-04-23T06:55:53.501Z,91.78
2023-04-23T06:56:53.478Z,91.58
2023-04-23T06:57:53.462Z,91.88
2023-04-23T06:58:53.485Z,91.38
2023-04-23T06:59:53.458Z,91.17
2023-04-23T07:00:53.467Z,91.17
2023-04-23T07:01:53.416Z,90.25
2023-04-23T07:02:53.520Z,90.56
2023-04-23T07:03:53.459Z,90.77
2023-04-23T07:04:53.438Z,91.58
2023-04-23T07:05:53.382Z,91.38
2023-04-23T07:06:53.377Z,91.07
2023-04-23T07:07:53.405Z,91.17
2023-04-23T07:08:53.364Z,91.74
2023-04-23T07:09:53.346Z,91.68
2023-04-23T07:10:53.400Z,91.53
2023-04-23T07:11:53.343Z,91.13
2023-04-23T07:12:53.315Z,91.94
2023-04-23T07:13:53.300Z,90.62
2023-04-23T07:14:53.330Z,90.72
2023-04-23T07:15:53.282Z,89.91
2023-04-23T07:16:53.352Z,89.40
2023-04-23T07:17:53.278Z,88.95
2023-04-23T07:18:53.270Z,89.05
2023-04-23T07:19:53.253Z,89.36
2023-04-23T07:20:53.243Z,89.36
2023-04-23T07:21:53.225Z,89.62
2023-04-23T07:22:53.235Z,88.20
2023-04-23T07:23:53.225Z,87.49
2023-04-23T07:24:53.288Z,88.56
2023-04-23T07:25:53.187Z,87.40
2023-04-23T07:26:53.182Z,85.94
2023-04-23T07:27:53.155Z,86.00
2023-04-23T07:28:53.202Z,86.27
2023-04-23T07:29:53.156Z,84.85
2023-04-23T07:30:53.149Z,84.20
2023-04-23T07:31:53.133Z,83.04
2023-04-23T07:32:53.216Z,83.07
2023-04-23T07:33:53.096Z,83.68
2023-04-23T07:34:53.360Z,81.37
2023-04-23T07:35:53.077Z,79.75
2023-04-23T07:36:53.057Z,80.43
2023-04-23T07:37:53.073Z,79.48
2023-04-23T07:38:53.065Z,79.04
2023-04-23T07:39:53.026Z,77.69
2023-04-23T07:40:53.035Z,77.08
2023-04-23T07:41:53.004Z,76.24
2023-04-23T07:42:53.021Z,76.44
2023-04-23T07:43:52.985Z,74.02
2023-04-23T07:44:52.977Z,74.63
2023-04-23T07:45:52.975Z,76.00
2023-04-23T07:46:52.986Z,73.11
2023-04-23T07:47:53.145Z,74.83
2023-04-23T07:48:52.922Z,75.94
2023-04-23T07:49:52.923Z,73.01
2023-04-23T07:50:52.916Z,74.43
2023-04-23T07:51:52.889Z,73.75
2023-04-23T07:52:52.939Z,73.55
2023-04-23T07:53:52.915Z,74.60
2023-04-23T07:54:52.887Z,75.40
2023-04-23T07:55:52.871Z,75.40
2023-04-23T07:56:52.842Z,75.07
2023-04-23T07:57:52.826Z,74.83
2023-04-23T07:58:52.862Z,73.15
2023-04-23T07:59:52.852Z,74.76
2023-04-23T08:00:52.798Z,75.27
2023-04-23T08:01:52.829Z,74.76
2023-04-23T08:02:52.878Z,73.55
2023-04-23T08:03:52.991Z,75.20
2023-04-23T08:04:52.982Z,73.32
2023-04-23T08:05:52.742Z,74.06
2023-04-23T08:06:52.732Z,74.66
2023-04-23T08:07:52.746Z,75.07
2023-04-23T08:08:52.726Z,75.81
2023-04-23T08:09:52.698Z,76.82
2023-04-23T08:10:52.714Z,76.69
2023-04-23T08:11:52.698Z,76.89
2023-04-23T08:12:52.663Z,76.48
2023-04-23T08:13:52.646Z,77.50
2023-04-23T08:14:52.651Z,77.50
2023-04-23T08:15:52.686Z,76.79
2023-04-23T08:16:52.669Z,76.59
2023-04-23T08:17:52.698Z,76.89
2023-04-23T08:19:04.252Z,76.99
2023-04-23T08:19:53.599Z,76.59
2023-04-23T08:20:52.578Z,76.69
2023-04-23T08:21:52.563Z,76.39
2023-04-23T08:22:52.576Z,76.48
2023-04-23T08:23:52.539Z,76.48
2023-04-23T08:24:52.545Z,76.79
2023-04-23T08:25:52.519Z,76.48
2023-04-23T08:26:52.500Z,74.46
2023-04-23T08:27:52.551Z,75.21
2023-04-23T08:28:52.482Z,74.80
2023-04-23T08:29:52.475Z,74.90
2023-04-23T08:30:52.473Z,74.60
2023-04-23T08:31:52.475Z,74.19
2023-04-23T08:32:52.465Z,74.30
2023-04-23T08:33:52.467Z,74.90
2023-04-23T08:34:52.429Z,73.52
2023-04-23T08:35:52.399Z,74.23
2023-04-23T08:36:52.396Z,74.33
2023-04-23T08:37:52.388Z,74.74
2023-04-23T08:38:52.369Z,74.33
2023-04-23T08:39:53.266Z,74.03
2023-04-23T08:40:52.352Z,74.84
2023-04-23T08:41:52.376Z,74.23
2023-04-23T08:42:52.324Z,74.74
2023-04-23T08:43:52.322Z,74.23
2023-04-23T08:44:52.312Z,74.03
2023-04-23T08:45:52.327Z,74.43
2023-04-23T08:46:52.310Z,74.70
2023-04-23T08:47:52.315Z,74.10
2023-04-23T08:48:52.283Z,74.80
2023-04-23T08:49:52.275Z,74.30
2023-04-23T08:50:52.252Z,75.01
2023-04-23T08:51:52.284Z,73.49
2023-04-23T08:52:52.229Z,73.66
2023-04-23T08:53:52.213Z,73.25
2023-04-23T08:54:52.192Z,72.64
2023-04-23T08:55:52.226Z,73.52
2023-04-23T08:56:52.184Z,72.78
2023-04-23T08:57:52.247Z,71.97
2023-04-23T08:58:52.165Z,71.53
2023-04-23T08:59:52.133Z,71.30
2023-04-23T09:00:52.213Z,70.19
2023-04-23T09:01:52.141Z,68.88
2023-04-23T09:02:52.217Z,69.68
2023-04-23T09:03:52.183Z,69.59
2023-04-23T09:04:52.942Z,69.65
2023-04-23T09:05:52.085Z,69.05
2023-04-23T09:06:52.097Z,69.15
2023-04-23T09:07:52.070Z,68.14
2023-04-23T09:08:52.035Z,69.05
2023-04-23T09:09:52.062Z,67.00
2023-04-23T09:10:52.030Z,68.21
2023-04-23T09:11:54.645Z,66.60
2023-04-23T09:12:52.009Z,67.30
2023-04-23T09:13:51.999Z,66.60
2023-04-23T09:14:51.973Z,67.17
2023-04-23T09:15:51.993Z,66.50
2023-04-23T09:16:52.025Z,66.50
2023-04-23T09:17:52.023Z,66.39
2023-04-23T09:18:51.967Z,67.40
2023-04-23T09:19:51.946Z,68.14
2023-04-23T09:20:51.921Z,69.75
2023-04-23T09:21:51.955Z,69.89
2023-04-23T09:22:52.019Z,69.68
2023-04-23T09:23:51.918Z,70.69
2023-04-23T09:24:51.873Z,69.82
2023-04-23T09:25:51.861Z,70.73
2023-04-23T09:26:51.870Z,71.06
2023-04-23T09:27:51.900Z,71.73
2023-04-23T09:28:51.832Z,72.14
2023-04-23T09:29:51.824Z,70.83
2023-04-23T09:30:51.810Z,70.96
2023-04-23T09:31:51.854Z,71.06
2023-04-23T09:32:51.786Z,71.37
2023-04-23T09:33:51.830Z,71.47
2023-04-23T09:34:51.768Z,71.97
2023-04-23T09:35:51.767Z,71.97
2023-04-23T09:36:51.770Z,72.27
2023-04-23T09:37:51.727Z,71.67
2023-04-23T09:38:51.749Z,71.77
2023-04-23T09:39:51.756Z,71.47
2023-04-23T09:40:51.694Z,70.56
2023-04-23T09:41:51.685Z,70.02
2023-04-23T09:42:51.676Z,70.29
2023-04-23T09:43:51.685Z,70.66
2023-04-23T09:44:51.657Z,69.01
2023-04-23T09:45:51.712Z,66.06
2023-04-23T09:46:59.626Z,66.19
2023-04-23T09:47:51.657Z,65.26
2023-04-23T09:48:51.633Z,64.45
2023-04-23T09:49:51.642Z,63.62
2023-04-23T09:50:51.598Z,63.92
2023-04-23T09:51:51.633Z,62.21
2023-04-23T09:52:51.596Z,62.48
2023-04-23T09:53:51.563Z,65.16
2023-04-23T09:54:51.560Z,62.22
2023-04-23T09:55:51.555Z,61.91
2023-04-23T09:56:51.554Z,61.31
2023-04-23T09:57:51.517Z,60.71
2023-04-23T09:58:51.522Z,60.61
2023-04-23T10:00:00.208Z,61.74
2023-04-23T10:00:52.539Z,60.24
2023-04-23T10:01:51.476Z,61.21
2023-04-23T10:02:51.651Z,62.72
2023-04-23T10:03:51.591Z,61.79
2023-04-23T10:04:51.555Z,60.48
2023-04-23T10:06:01.320Z,60.65
2023-04-23T10:07:13.118Z,59.34
2023-04-23T10:07:52.422Z,59.88
2023-04-23T10:08:51.435Z,59.67
2023-04-23T10:09:51.390Z,58.50
2023-04-23T10:11:05.947Z,59.41
2023-04-23T10:11:52.840Z,60.31
2023-04-23T10:12:55.174Z,60.08
2023-04-23T10:13:51.347Z,60.41
2023-04-23T10:14:51.337Z,59.30
2023-04-23T10:15:51.400Z,59.60
2023-04-23T10:16:51.359Z,58.70
2023-04-23T10:17:51.528Z,59.13
2023-04-23T10:18:51.324Z,61.14
2023-04-23T10:19:51.283Z,60.33
2023-04-23T10:20:51.268Z,60.21
2023-04-23T10:21:54.921Z,58.37
2023-04-23T10:22:52.257Z,58.67
2023-04-23T10:23:51.233Z,58.77
2023-04-23T10:24:51.233Z,58.67
2023-04-23T10:25:51.232Z,59.27
2023-04-23T10:26:51.221Z,57.50
2023-04-23T10:27:53.987Z,58.60
2023-04-23T10:28:51.204Z,58.22
2023-04-23T10:29:51.177Z,59.83
2023-04-23T10:30:51.172Z,58.62
2023-04-23T10:31:51.180Z,58.45
2023-04-23T10:32:51.259Z,58.86
2023-04-23T10:33:58.655Z,57.35
2023-04-23T10:34:51.110Z,58.75
2023-04-23T10:35:51.125Z,59.06
2023-04-23T10:36:51.108Z,58.95
2023-04-23T10:37:51.118Z,59.79
2023-04-23T10:38:57.888Z,60.02
2023-04-23T10:39:52.068Z,59.48
2023-04-23T10:40:51.062Z,60.63
2023-04-23T10:41:51.047Z,59.72
2023-04-23T10:42:51.051Z,60.72
2023-04-23T10:43:51.023Z,60.25
2023-04-23T10:45:00.918Z,60.65
2023-04-23T10:45:51.991Z,60.75
2023-04-23T10:46:51.007Z,60.85
2023-04-23T10:47:51.032Z,58.84
2023-04-23T10:48:50.979Z,60.28
2023-04-23T10:49:50.952Z,61.69
2023-04-23T10:51:06.967Z,60.65
2023-04-23T10:52:50.922Z,60.98
2023-04-23T10:53:50.989Z,61.39
2023-04-23T10:54:50.899Z,61.36
2023-04-23T10:55:50.911Z,60.85
2023-04-23T10:56:50.870Z,62.06
2023-04-23T10:57:50.871Z,61.36
2023-04-23T10:58:50.861Z,60.22
2023-04-23T10:59:51.767Z,60.96
2023-04-23T11:00:50.853Z,59.64
2023-04-23T11:01:50.871Z,60.85
2023-04-23T11:02:50.955Z,60.45
2023-04-23T11:03:50.882Z,60.38
2023-04-23T11:04:50.812Z,60.98
2023-04-23T11:05:50.778Z,61.69
2023-04-23T11:06:50.766Z,60.88
2023-04-23T11:07:50.831Z,61.01
2023-04-23T11:08:51.430Z,60.98
2023-04-23T11:09:50.732Z,61.39
2023-04-23T11:10:50.716Z,60.68
2023-04-23T11:11:50.717Z,60.96
2023-04-23T11:12:50.721Z,61.76
2023-04-23T11:13:50.699Z,61.76
2023-04-23T11:14:50.717Z,60.25
2023-04-23T11:15:50.678Z,60.75
2023-04-23T11:16:50.715Z,61.13
2023-04-23T11:17:50.651Z,60.32
2023-04-23T11:18:50.625Z,61.50
2023-04-23T11:19:50.620Z,60.80
2023-04-23T11:20:50.616Z,59.11
2023-04-23T11:21:50.608Z,58.71
2023-04-23T11:22:50.601Z,58.91
2023-04-23T11:23:50.575Z,59.82
2023-04-23T11:24:51.107Z,61.00
2023-04-23T11:25:50.596Z,59.01
2023-04-23T11:26:50.561Z,60.19
2023-04-23T11:27:50.538Z,58.98
2023-04-23T11:28:50.545Z,58.61
2023-04-23T11:29:50.570Z,58.91
2023-04-23T11:30:51.245Z,59.31
2023-04-23T11:32:01.831Z,59.22
2023-04-23T11:32:51.710Z,59.92
2023-04-23T11:33:50.454Z,60.93
2023-04-23T11:34:50.508Z,60.22
2023-04-23T11:35:50.480Z,59.89
2023-04-23T11:36:50.452Z,60.49
2023-04-23T11:37:50.432Z,58.68
2023-04-23T11:38:50.416Z,59.59
2023-04-23T11:39:50.406Z,59.66
2023-04-23T11:40:50.387Z,59.16
2023-04-23T11:41:50.408Z,58.25
2023-04-23T11:42:50.380Z,57.28
2023-04-23T11:43:50.351Z,58.58
2023-04-23T11:44:50.367Z,58.91
2023-04-23T11:45:50.376Z,58.81
2023-04-23T11:46:50.324Z,59.24
2023-04-23T11:47:50.329Z,60.35
2023-04-23T11:48:50.293Z,60.83
2023-04-23T11:49:50.278Z,60.83
2023-04-23T11:50:50.295Z,60.12
2023-04-23T11:51:50.295Z,59.62
2023-04-23T11:52:50.243Z,60.22
2023-04-23T11:53:50.294Z,60.32
2023-04-23T11:54:50.262Z,59.22
2023-04-23T11:55:50.230Z,59.99
2023-04-23T11:56:50.230Z,60.19
2023-04-23T11:57:50.192Z,62.07
2023-04-23T11:58:50.209Z,60.29
2023-04-23T11:59:50.217Z,59.89
2023-04-23T12:00:50.159Z,61.20
2023-04-23T12:01:50.159Z,61.00
2023-04-23T12:02:50.265Z,60.39
2023-04-23T12:03:50.337Z,60.19
2023-04-23T12:04:50.116Z,59.28
2023-04-23T12:05:50.101Z,59.42
2023-04-23T12:06:50.096Z,58.61
2023-04-23T12:07:50.134Z,59.42
2023-04-23T12:08:50.088Z,60.12
2023-04-23T12:09:50.049Z,60.52
2023-04-23T12:10:50.079Z,60.63
2023-04-23T12:11:50.027Z,61.43
2023-04-23T12:12:50.036Z,62.04
2023-04-23T12:13:50.020Z,62.30
2023-04-23T12:14:49.993Z,60.49
2023-04-23T12:15:50.126Z,61.07
2023-04-23T12:16:50.001Z,60.09
2023-04-23T12:17:49.986Z,59.99
2023-04-23T12:18:49.970Z,60.32
2023-04-23T12:19:49.948Z,60.09
2023-04-23T12:20:49.931Z,60.42
2023-04-23T12:21:49.937Z,59.48
2023-04-23T12:22:49.934Z,59.79
2023-04-23T12:23:49.913Z,61.80
2023-04-23T12:24:49.921Z,60.60
2023-04-23T12:25:49.888Z,59.48
2023-04-23T12:26:49.922Z,59.69
2023-04-23T12:27:49.854Z,59.99
2023-04-23T12:28:50.021Z,60.89
2023-04-23T12:29:49.851Z,58.88
2023-04-23T12:30:49.830Z,58.98
2023-04-23T12:31:49.881Z,59.16
2023-04-23T12:32:49.848Z,58.55
2023-04-23T12:33:49.801Z,59.26
2023-04-23T12:34:49.832Z,59.06
2023-04-23T12:35:49.774Z,59.36
2023-04-23T12:36:49.757Z,60.27
2023-04-23T12:37:49.752Z,59.46
2023-04-23T12:38:49.806Z,60.49
2023-04-23T12:39:49.738Z,59.56
2023-04-23T12:40:49.735Z,57.85
2023-04-23T12:41:49.703Z,59.43
2023-04-23T12:42:49.699Z,59.03
2023-04-23T12:43:49.709Z,59.33
2023-04-23T12:44:50.228Z,59.10
2023-04-23T12:45:49.680Z,59.13
2023-04-23T12:46:49.655Z,56.84
2023-04-23T12:47:49.674Z,57.65
2023-04-23T12:48:49.670Z,59.16
2023-04-23T12:49:49.628Z,59.19
2023-04-23T12:50:49.616Z,58.98
2023-04-23T12:51:49.616Z,58.18
2023-04-23T12:52:49.622Z,58.95
2023-04-23T12:53:49.586Z,57.95